createdAt,value
2024-02-14T00:00:36.203Z,100.00
2024-02-14T00:03:05.628Z,100.00
2024-02-14T00:05:34.198Z,100.00
2024-02-14T00:08:04.515Z,100.00
2024-02-14T00:10:34.458Z,100.00
2024-02-14T00:13:03.500Z,100.00
2024-02-14T00:15:32.065Z,100.00
2024-02-14T00:18:00.667Z,100.00
2024-02-14T00:20:29.217Z,100.00
2024-02-14T00:22:57.914Z,100.00
2024-02-14T00:25:26.380Z,100.00
2024-02-14T00:27:56.637Z,100.00
2024-02-14T00:30:28.142Z,96.41
2024-02-14T00:32:58.390Z,99.58
2024-02-14T00:35:27.208Z,100.00
2024-02-14T00:37:56.024Z,97.32
2024-02-14T00:40:24.957Z,95.36
2024-02-14T00:42:53.500Z,99.65
2024-02-14T00:45:23.354Z,94.65
2024-02-14T00:47:52.141Z,100.00
2024-02-14T00:50:20.768Z,100.00
2024-02-14T00:52:49.233Z,100.00
2024-02-14T00:55:17.785Z,100.00
2024-02-14T00:57:46.268Z,100.00
2024-02-14T01:00:18.785Z,100.00
2024-02-14T01:02:48.893Z,100.00
2024-02-14T01:05:17.546Z,100.00
2024-02-14T01:07:47.843Z,100.00
2024-02-14T01:10:16.365Z,100.00
2024-02-14T01:12:44.803Z,100.00
2024-02-14T01:15:13.554Z,97.20
2024-02-14T01:17:42.522Z,100.00
2024-02-14T01:20:13.874Z,90.90
2024-02-14T01:22:42.313Z,95.58
2024-02-14T01:25:12.103Z,96.63
2024-02-14T01:27:41.677Z,94.73
2024-02-14T01:30:12.252Z,93.73
2024-02-14T01:32:41.293Z,93.12
2024-02-14T01:35:11.693Z,90.82
2024-02-14T01:37:40.454Z,96.32
2024-02-14T01:40:10.903Z,100.00
2024-02-14T01:42:39.565Z,100.00
2024-02-14T01:45:10.048Z,100.00
2024-02-14T01:47:40.067Z,96.88
2024-02-14T01:50:12.950Z,99.29
2024-02-14T01:52:42.888Z,98.54
2024-02-14T01:55:12.014Z,97.43
2024-02-14T01:57:41.764Z,95.43
2024-02-14T02:00:19.372Z,94.72
2024-02-14T02:02:49.086Z,98.73
2024-02-14T02:05:20.290Z,96.18
2024-02-14T02:07:49.891Z,98.74
2024-02-14T02:10:18.712Z,100.00
2024-02-14T02:12:47.199Z,98.92
2024-02-14T02:15:16.403Z,99.88
2024-02-14T02:17:47.110Z,100.00
2024-02-14T02:20:16.783Z,100.00
2024-02-14T02:22:48.491Z,97.96
2024-02-14T02:25:17.280Z,100.00
2024-02-14T02:27:46.417Z,100.00
2024-02-14T02:30:15.330Z,100.00
2024-02-14T02:32:45.508Z,99.77
2024-02-14T02:35:14.021Z,100.00
2024-02-14T02:37:42.810Z,100.00
2024-02-14T02:40:15.732Z,100.00
2024-02-14T02:42:44.497Z,100.00
2024-02-14T02:45:13.563Z,100.00
2024-02-14T02:48:02.473Z,100.00
2024-02-14T02:50:50.819Z,100.00
2024-02-14T02:53:39.013Z,100.00
2024-02-14T02:56:28.612Z,96.82
2024-02-14T02:59:18.082Z,100.00
2024-02-14T03:02:10.780Z,100.00
2024-02-14T03:04:58.263Z,100.00
2024-02-14T03:07:46.767Z,100.00
2024-02-14T03:10:33.791Z,100.00
2024-02-14T03:13:22.213Z,100.00
2024-02-14T03:16:09.813Z,100.00
2024-02-14T03:18:57.003Z,100.00
2024-02-14T03:21:44.758Z,100.00
2024-02-14T03:24:31.774Z,100.00
2024-02-14T03:27:20.291Z,100.00
2024-02-14T03:30:10.561Z,100.00
2024-02-14T03:32:58.036Z,100.00
2024-02-14T03:35:45.465Z,100.00
2024-02-14T03:38:32.942Z,100.00
2024-02-14T03:41:20.081Z,100.00
2024-02-14T03:44:07.931Z,100.00
2024-02-14T03:46:56.048Z,100.00
2024-02-14T03:49:43.478Z,100.00
2024-02-14T03:52:33.240Z,100.00
2024-02-14T03:55:20.536Z,100.00
2024-02-14T03:58:09.545Z,100.00
2024-02-14T04:00:56.434Z,100.00
2024-02-14T04:03:45.289Z,100.00
2024-02-14T04:06:33.966Z,100.00
2024-02-14T04:09:03.093Z,100.00
2024-02-14T04:11:34.661Z,100.00
2024-02-14T04:14:03.172Z,100.00
2024-02-14T04:16:31.640Z,100.00
2024-02-14T04:19:01.900Z,100.00
2024-02-14T04:21:31.425Z,100.00
2024-02-14T04:23:59.964Z,100.00
2024-02-14T04:26:28.516Z,100.00
2024-02-14T04:28:57.141Z,100.00
2024-02-14T04:31:25.909Z,100.00
2024-02-14T04:33:55.548Z,100.00
2024-02-14T04:36:25.615Z,100.00
2024-02-14T04:38:56.959Z,100.00
2024-02-14T04:41:25.819Z,100.00
2024-02-14T04:43:54.335Z,100.00
2024-02-14T04:46:23.636Z,100.00
2024-02-14T04:48:52.251Z,100.00
2024-02-14T04:51:21.101Z,100.00
2024-02-14T04:53:51.153Z,100.00
2024-02-14T04:56:19.905Z,100.00
2024-02-14T04:58:48.351Z,100.00
2024-02-14T05:01:17.174Z,100.00
2024-02-14T05:03:45.756Z,100.00
2024-02-14T05:06:14.615Z,100.00
2024-02-14T05:08:43.410Z,100.00
2024-02-14T05:11:13.239Z,100.00
2024-02-14T05:13:42.726Z,100.00
2024-02-14T05:16:11.911Z,100.00
2024-02-14T05:18:41.105Z,100.00
2024-02-14T05:21:10.214Z,100.00
2024-02-14T05:23:38.886Z,100.00
2024-02-14T05:26:08.128Z,100.00
2024-02-14T05:28:37.964Z,100.00
2024-02-14T05:31:08.739Z,100.00
2024-02-14T05:33:37.419Z,100.00
2024-02-14T05:36:07.325Z,100.00
2024-02-14T05:38:36.932Z,100.00
2024-02-14T05:41:05.905Z,100.00
2024-02-14T05:43:35.199Z,100.00
2024-02-14T05:46:05.219Z,100.00
2024-02-14T05:48:33.814Z,100.00
2024-02-14T05:51:02.986Z,100.00
2024-02-14T05:53:31.457Z,100.00
2024-02-14T05:56:00.163Z,100.00
2024-02-14T05:58:29.818Z,100.00
2024-02-14T06:00:58.367Z,100.00
2024-02-14T06:03:28.972Z,100.00
2024-02-14T06:05:57.507Z,100.00
2024-02-14T06:08:27.794Z,100.00
2024-02-14T06:10:56.281Z,100.00
2024-02-14T06:13:25.242Z,100.00
2024-02-14T06:15:53.798Z,100.00
2024-02-14T06:18:22.593Z,100.00
2024-02-14T06:20:52.568Z,100.00
2024-02-14T06:23:21.477Z,100.00
2024-02-14T06:25:50.232Z,100.00
2024-02-14T06:28:18.734Z,100.00
2024-02-14T06:30:47.210Z,100.00
2024-02-14T06:33:15.999Z,100.00
2024-02-14T06:35:44.952Z,100.00
2024-02-14T06:38:15.219Z,100.00
2024-02-14T06:40:45.015Z,100.00
2024-02-14T06:43:13.614Z,100.00
2024-02-14T06:45:42.630Z,100.00
2024-02-14T06:48:11.246Z,100.00
2024-02-14T06:50:39.881Z,100.00
2024-02-14T06:53:09.107Z,100.00
2024-02-14T06:55:38.932Z,100.00
2024-02-14T06:58:07.419Z,100.00
2024-02-14T07:00:36.142Z,100.00
2024-02-14T07:03:05.465Z,100.00
2024-02-14T07:05:34.172Z,100.00
2024-02-14T07:08:02.769Z,100.00
2024-02-14T07:10:31.485Z,100.00
2024-02-14T07:13:01.361Z,100.00
2024-02-14T07:15:30.526Z,100.00
2024-02-14T07:18:00.569Z,100.00
2024-02-14T07:20:29.377Z,100.00
2024-02-14T07:22:58.326Z,100.00
2024-02-14T07:25:27.656Z,100.00
2024-02-14T07:27:56.151Z,100.00
2024-02-14T07:30:26.682Z,100.00
2024-02-14T07:32:55.299Z,100.00
2024-02-14T07:35:25.202Z,100.00
2024-02-14T07:37:54.109Z,100.00
2024-02-14T07:40:23.505Z,100.00
2024-02-14T07:42:52.007Z,100.00
2024-02-14T07:45:20.523Z,100.00
2024-02-14T07:47:52.072Z,100.00
2024-02-14T07:50:20.761Z,100.00
2024-02-14T07:52:50.066Z,100.00
2024-02-14T07:55:18.558Z,100.00
2024-02-14T07:57:47.723Z,100.00
2024-02-14T08:00:23.649Z,100.00
2024-02-14T08:02:54.058Z,100.00
2024-02-14T08:05:22.609Z,100.00
2024-02-14T08:07:51.100Z,100.00
2024-02-14T08:10:19.668Z,100.00
2024-02-14T08:12:48.608Z,99.80
2024-02-14T08:15:17.293Z,100.00
2024-02-14T08:17:47.236Z,100.00
2024-02-14T08:20:19.105Z,100.00
2024-02-14T08:22:47.839Z,100.00
2024-02-14T08:25:16.799Z,100.00
2024-02-14T08:27:45.251Z,97.50
2024-02-14T08:30:15.219Z,99.82
2024-02-14T08:32:43.942Z,99.95
2024-02-14T08:35:15.012Z,100.00
2024-02-14T08:37:45.014Z,100.00
2024-02-14T08:40:14.097Z,100.00
2024-02-14T08:42:42.763Z,100.00
2024-02-14T08:45:12.557Z,100.00
2024-02-14T08:47:42.162Z,100.00
2024-02-14T08:50:11.509Z,100.00
2024-02-14T08:52:40.060Z,100.00
2024-02-14T08:55:15.987Z,100.00
2024-02-14T08:57:44.844Z,100.00
2024-02-14T09:00:20.948Z,100.00
2024-02-14T09:02:50.781Z,100.00
2024-02-14T09:05:20.210Z,100.00
2024-02-14T09:07:48.817Z,100.00
2024-02-14T09:10:18.701Z,100.00
2024-02-14T09:12:47.197Z,100.00
2024-02-14T09:15:16.023Z,100.00
2024-02-14T09:17:44.660Z,100.00
2024-02-14T09:20:15.700Z,100.00
2024-02-14T09:22:44.509Z,100.00
2024-02-14T09:25:13.026Z,100.00
2024-02-14T09:27:44.704Z,100.00
2024-02-14T09:30:24.210Z,100.00
2024-02-14T09:33:01.080Z,100.00
2024-02-14T09:35:29.818Z,100.00
2024-02-14T09:37:58.578Z,100.00
2024-02-14T09:40:27.352Z,100.00
2024-02-14T09:42:59.504Z,100.00
2024-02-14T09:45:28.976Z,100.00
2024-02-14T09:47:59.226Z,100.00
2024-02-14T09:50:33.568Z,100.00
2024-02-14T09:53:03.002Z,100.00
2024-02-14T09:55:31.782Z,100.00
2024-02-14T09:58:05.340Z,100.00
2024-02-14T10:00:35.233Z,100.00
2024-02-14T10:03:04.337Z,100.00
2024-02-14T10:05:33.092Z,100.00
2024-02-14T10:08:02.660Z,100.00
2024-02-14T10:10:31.323Z,100.00
2024-02-14T10:13:01.777Z,100.00
2024-02-14T10:15:31.634Z,100.00
2024-02-14T10:18:01.154Z,100.00
2024-02-14T10:20:31.090Z,100.00
2024-02-14T10:23:04.932Z,100.00
2024-02-14T10:25:33.785Z,100.00
2024-02-14T10:28:09.520Z,100.00
2024-02-14T10:30:39.601Z,100.00
2024-02-14T10:33:17.118Z,100.00
2024-02-14T10:35:57.516Z,100.00
2024-02-14T10:38:29.711Z,100.00
2024-02-14T10:41:01.552Z,100.00
2024-02-14T10:43:31.730Z,100.00
2024-02-14T10:46:08.752Z,100.00
2024-02-14T10:48:41.348Z,100.00
2024-02-14T10:51:12.506Z,100.00
2024-02-14T10:53:47.111Z,100.00
2024-02-14T10:56:20.938Z,100.00
2024-02-14T10:58:52.984Z,100.00
2024-02-14T11:01:23.619Z,100.00
2024-02-14T11:03:52.576Z,100.00
2024-02-14T11:06:21.215Z,100.00
2024-02-14T11:08:59.849Z,100.00
2024-02-14T11:11:31.909Z,100.00
2024-02-14T11:14:02.560Z,100.00
2024-02-14T11:16:34.426Z,100.00
2024-02-14T11:19:11.234Z,100.00
2024-02-14T11:21:44.151Z,100.00
2024-02-14T11:24:14.141Z,100.00
2024-02-14T11:26:50.543Z,100.00
2024-02-14T11:29:24.165Z,100.00
2024-02-14T11:32:02.281Z,100.00
2024-02-14T11:34:36.117Z,100.00
2024-02-14T11:37:07.421Z,100.00
2024-02-14T11:39:36.667Z,100.00
2024-02-14T11:42:05.664Z,100.00
2024-02-14T11:44:35.623Z,100.00
2024-02-14T11:47:06.042Z,100.00
2024-02-14T11:49:34.967Z,100.00
2024-02-14T11:52:05.494Z,100.00
2024-02-14T11:54:34.492Z,100.00
2024-02-14T11:57:04.009Z,100.00
2024-02-14T11:59:34.002Z,100.00
2024-02-14T12:02:04.023Z,100.00
2024-02-14T12:04:33.102Z,100.00
2024-02-14T12:07:02.016Z,100.00
2024-02-14T12:09:31.101Z,100.00
2024-02-14T12:11:59.993Z,100.00
2024-02-14T12:14:31.207Z,100.00
2024-02-14T12:17:04.014Z,100.00
2024-02-14T12:19:34.655Z,100.00
2024-02-14T12:22:03.767Z,100.00
2024-02-14T12:24:32.775Z,100.00
2024-02-14T12:27:01.316Z,100.00
2024-02-14T12:29:29.883Z,100.00
2024-02-14T12:32:08.173Z,100.00
2024-02-14T12:34:37.366Z,100.00
2024-02-14T12:37:06.855Z,100.00
2024-02-14T12:39:35.400Z,100.00
2024-02-14T12:42:04.884Z,100.00
2024-02-14T12:44:33.656Z,100.00
2024-02-14T12:47:02.213Z,100.00
2024-02-14T12:49:32.977Z,100.00
2024-02-14T12:52:01.635Z,100.00
2024-02-14T12:54:30.335Z,100.00
2024-02-14T12:56:59.120Z,100.00
2024-02-14T12:59:27.848Z,100.00
2024-02-14T13:01:56.937Z,100.00
2024-02-14T13:04:25.676Z,100.00
2024-02-14T13:06:55.944Z,100.00
2024-02-14T13:09:24.594Z,100.00
2024-02-14T13:11:56.661Z,100.00
2024-02-14T13:14:26.048Z,100.00
2024-02-14T13:16:54.647Z,100.00
2024-02-14T13:19:24.786Z,100.00
2024-02-14T13:21:55.596Z,100.00
2024-02-14T13:24:24.133Z,100.00
2024-02-14T13:26:52.873Z,100.00
2024-02-14T13:29:21.537Z,100.00
2024-02-14T13:31:50.988Z,100.00
2024-02-14T13:34:20.948Z,100.00
2024-02-14T13:36:50.133Z,100.00
2024-02-14T13:39:20.027Z,100.00
2024-02-14T13:41:48.973Z,100.00
2024-02-14T13:44:17.754Z,100.00
2024-02-14T13:46:47.738Z,100.00
2024-02-14T13:49:19.508Z,100.00
2024-02-14T13:51:48.390Z,100.00
2024-02-14T13:54:17.289Z,100.00
2024-02-14T13:56:49.625Z,100.00
2024-02-14T13:59:19.418Z,100.00
2024-02-14T14:01:49.023Z,100.00
2024-02-14T14:04:18.157Z,100.00
2024-02-14T14:06:49.028Z,100.00
2024-02-14T14:09:17.745Z,100.00
2024-02-14T14:11:51.151Z,100.00
2024-02-14T14:14:20.670Z,100.00
2024-02-14T14:16:49.307Z,100.00
2024-02-14T14:19:17.895Z,100.00
2024-02-14T14:21:46.438Z,100.00
2024-02-14T14:24:16.669Z,100.00
2024-02-14T14:26:46.834Z,99.49
2024-02-14T14:29:15.424Z,99.75
2024-02-14T14:31:44.057Z,100.00
2024-02-14T14:34:12.741Z,99.11
2024-02-14T14:36:42.382Z,98.97
2024-02-14T14:39:12.638Z,98.23
2024-02-14T14:41:43.158Z,97.71
2024-02-14T14:44:14.096Z,97.67
2024-02-14T14:46:43.342Z,97.54
2024-02-14T14:49:12.160Z,97.81
2024-02-14T14:51:43.102Z,98.75
2024-02-14T14:54:12.248Z,97.55
2024-02-14T14:56:40.781Z,97.78
2024-02-14T14:59:09.499Z,97.02
2024-02-14T15:01:39.653Z,97.26
2024-02-14T15:04:08.509Z,96.68
2024-02-14T15:06:37.172Z,97.79
2024-02-14T15:09:07.016Z,98.44
2024-02-14T15:11:35.600Z,98.21
2024-02-14T15:14:08.267Z,97.73
2024-02-14T15:16:38.808Z,98.45
2024-02-14T15:19:08.437Z,98.74
2024-02-14T15:21:37.445Z,98.91
2024-02-14T15:24:06.310Z,99.65
2024-02-14T15:26:50.546Z,99.60
2024-02-14T15:29:36.877Z,99.34
2024-02-14T15:32:26.241Z,100.00
2024-02-14T15:34:54.858Z,99.68
2024-02-14T15:37:24.241Z,99.81
2024-02-14T15:39:53.649Z,100.00
2024-02-14T15:42:22.123Z,100.00
2024-02-14T15:44:50.578Z,99.87
2024-02-14T15:47:21.002Z,99.49
2024-02-14T15:49:49.492Z,100.00
2024-02-14T15:52:18.635Z,100.00
2024-02-14T15:54:47.096Z,100.00
2024-02-14T15:57:15.838Z,100.00
2024-02-14T15:59:44.420Z,100.00
2024-02-14T16:02:12.932Z,100.00
2024-02-14T16:04:42.797Z,100.00
2024-02-14T16:07:11.482Z,100.00
2024-02-14T16:09:40.006Z,100.00
2024-02-14T16:12:09.310Z,100.00
2024-02-14T16:14:38.537Z,100.00
2024-02-14T16:17:07.125Z,100.00
2024-02-14T16:19:35.604Z,100.00
2024-02-14T16:22:12.536Z,100.00
2024-02-14T16:24:46.493Z,100.00
2024-02-14T16:27:17.384Z,100.00
2024-02-14T16:29:46.103Z,100.00
2024-02-14T16:32:14.883Z,100.00
2024-02-14T16:34:44.582Z,100.00
2024-02-14T16:37:18.046Z,100.00
2024-02-14T16:39:47.196Z,100.00
2024-02-14T16:42:17.714Z,100.00
2024-02-14T16:44:46.894Z,100.00
2024-02-14T16:47:15.722Z,100.00
2024-02-14T16:49:44.391Z,100.00
2024-02-14T16:52:14.378Z,100.00
2024-02-14T16:54:43.219Z,100.00
2024-02-14T16:57:15.976Z,100.00
2024-02-14T16:59:47.171Z,100.00
2024-02-14T17:02:17.383Z,100.00
2024-02-14T17:04:46.235Z,100.00
2024-02-14T17:07:16.877Z,100.00
2024-02-14T17:09:46.460Z,100.00
2024-02-14T17:12:15.446Z,100.00
2024-02-14T17:14:46.671Z,100.00
2024-02-14T17:17:16.736Z,100.00
2024-02-14T17:19:45.583Z,100.00
2024-02-14T17:22:21.029Z,100.00
2024-02-14T17:24:56.973Z,100.00
2024-02-14T17:27:26.703Z,100.00
2024-02-14T17:29:55.829Z,100.00
2024-02-14T17:32:32.479Z,100.00
2024-02-14T17:35:10.131Z,100.00
2024-02-14T17:37:41.598Z,100.00
2024-02-14T17:40:11.407Z,100.00
2024-02-14T17:42:40.336Z,100.00
2024-02-14T17:45:10.863Z,100.00
2024-02-14T17:47:40.042Z,100.00
2024-02-14T17:50:11.660Z,100.00
2024-02-14T17:52:41.833Z,100.00
2024-02-14T17:55:11.499Z,100.00
2024-02-14T17:57:40.251Z,100.00
2024-02-14T18:00:12.759Z,100.00
2024-02-14T18:02:41.846Z,100.00
2024-02-14T18:05:11.191Z,100.00
2024-02-14T18:07:42.209Z,100.00
2024-02-14T18:10:11.658Z,100.00
2024-02-14T18:12:40.295Z,100.00
2024-02-14T18:15:10.437Z,100.00
2024-02-14T18:17:39.682Z,100.00
2024-02-14T18:20:10.076Z,100.00
2024-02-14T18:22:38.876Z,100.00
2024-02-14T18:25:13.415Z,100.00
2024-02-14T18:27:42.463Z,100.00
2024-02-14T18:30:13.572Z,100.00
2024-02-14T18:32:42.549Z,100.00
2024-02-14T18:35:11.508Z,100.00
2024-02-14T18:37:40.437Z,100.00
2024-02-14T18:40:12.327Z,100.00
2024-02-14T18:42:41.790Z,100.00
2024-02-14T18:45:11.858Z,100.00
2024-02-14T18:47:40.669Z,100.00
2024-02-14T18:50:10.083Z,100.00
2024-02-14T18:52:39.762Z,100.00
2024-02-14T18:55:10.240Z,100.00
2024-02-14T18:57:38.724Z,100.00
2024-02-14T19:00:11.321Z,100.00
2024-02-14T19:02:43.635Z,100.00
2024-02-14T19:05:12.527Z,100.00
2024-02-14T19:07:41.559Z,100.00
2024-02-14T19:10:12.853Z,100.00
2024-02-14T19:12:42.635Z,100.00
2024-02-14T19:15:12.628Z,100.00
2024-02-14T19:17:41.707Z,100.00
2024-02-14T19:20:11.471Z,100.00
2024-02-14T19:22:39.988Z,100.00
2024-02-14T19:25:11.041Z,100.00
2024-02-14T19:27:39.576Z,100.00
2024-02-14T19:30:10.200Z,100.00
2024-02-14T19:32:40.643Z,100.00
2024-02-14T19:35:10.381Z,100.00
2024-02-14T19:37:38.945Z,100.00
2024-02-14T19:40:12.163Z,100.00
2024-02-14T19:42:42.202Z,100.00
2024-02-14T19:45:11.949Z,100.00
2024-02-14T19:47:40.616Z,100.00
2024-02-14T19:50:12.964Z,100.00
2024-02-14T19:52:41.732Z,100.00
2024-02-14T19:55:11.653Z,100.00
2024-02-14T19:57:41.687Z,100.00
2024-02-14T20:00:11.326Z,100.00
2024-02-14T20:02:39.927Z,100.00
2024-02-14T20:05:09.929Z,100.00
2024-02-14T20:07:38.667Z,100.00
2024-02-14T20:10:08.728Z,100.00
2024-02-14T20:12:39.382Z,100.00
2024-02-14T20:15:12.654Z,100.00
2024-02-14T20:17:41.495Z,100.00
2024-02-14T20:20:10.856Z,100.00
2024-02-14T20:22:39.344Z,100.00
2024-02-14T20:25:09.701Z,100.00
2024-02-14T20:27:39.223Z,100.00
2024-02-14T20:30:13.869Z,100.00
2024-02-14T20:32:43.058Z,100.00
2024-02-14T20:35:13.912Z,100.00
2024-02-14T20:37:44.729Z,100.00
2024-02-14T20:40:15.112Z,100.00
2024-02-14T20:42:43.755Z,100.00
2024-02-14T20:45:14.175Z,100.00
2024-02-14T20:47:44.969Z,100.00
2024-02-14T20:50:15.720Z,100.00
2024-02-14T20:52:44.681Z,100.00
2024-02-14T20:55:13.310Z,100.00
2024-02-14T20:57:42.427Z,100.00
2024-02-14T21:00:15.036Z,100.00
2024-02-14T21:02:43.604Z,100.00
2024-02-14T21:05:12.434Z,100.00
2024-02-14T21:07:40.923Z,100.00
2024-02-14T21:10:11.399Z,100.00
2024-02-14T21:12:40.080Z,100.00
2024-02-14T21:15:10.119Z,100.00
2024-02-14T21:17:40.436Z,100.00
2024-02-14T21:20:11.138Z,100.00
2024-02-14T21:22:39.653Z,100.00
2024-02-14T21:25:08.833Z,100.00
2024-02-14T21:27:37.276Z,100.00
2024-02-14T21:30:08.238Z,100.00
2024-02-14T21:32:36.846Z,100.00
2024-02-14T21:35:06.651Z,100.00
2024-02-14T21:37:35.194Z,100.00
2024-02-14T21:40:04.311Z,100.00
2024-02-14T21:42:33.398Z,100.00
2024-02-14T21:45:01.976Z,100.00
2024-02-14T21:47:30.541Z,100.00
2024-02-14T21:49:59.343Z,100.00
2024-02-14T21:52:31.075Z,100.00
2024-02-14T21:55:00.547Z,100.00
2024-02-14T21:57:29.602Z,100.00
2024-02-14T21:59:58.225Z,100.00
2024-02-14T22:02:26.782Z,100.00
2024-02-14T22:04:55.475Z,100.00
2024-02-14T22:07:26.155Z,100.00
2024-02-14T22:09:56.366Z,100.00
2024-02-14T22:12:24.880Z,100.00
2024-02-14T22:14:54.162Z,100.00
2024-02-14T22:17:22.777Z,100.00
2024-02-14T22:19:51.288Z,100.00
2024-02-14T22:22:21.075Z,100.00
2024-02-14T22:24:49.635Z,100.00
2024-02-14T22:27:20.346Z,100.00
2024-02-14T22:29:48.843Z,100.00
2024-02-14T22:32:17.636Z,100.00
2024-02-14T22:34:46.166Z,100.00
2024-02-14T22:37:14.909Z,100.00
2024-02-14T22:39:44.150Z,100.00
2024-02-14T22:42:13.000Z,100.00
2024-02-14T22:44:43.001Z,100.00
2024-02-14T22:47:11.783Z,100.00
2024-02-14T22:49:40.513Z,100.00
2024-02-14T22:52:09.277Z,100.00
2024-02-14T22:54:37.751Z,100.00
2024-02-14T22:57:09.255Z,100.00
2024-02-14T22:59:39.289Z,100.00
2024-02-14T23:02:10.606Z,100.00
2024-02-14T23:04:40.525Z,100.00
2024-02-14T23:07:09.246Z,100.00
2024-02-14T23:09:38.949Z,100.00
2024-02-14T23:12:08.091Z,100.00
2024-02-14T23:14:36.863Z,100.00
2024-02-14T23:17:05.800Z,100.00
2024-02-14T23:19:35.968Z,100.00
2024-02-14T23:22:04.510Z,100.00
2024-02-14T23:24:34.018Z,100.00
2024-02-14T23:27:02.903Z,100.00
2024-02-14T23:29:32.136Z,100.00
2024-02-14T23:32:00.687Z,100.00
2024-02-14T23:34:29.270Z,100.00
2024-02-14T23:37:00.023Z,100.00
2024-02-14T23:39:28.508Z,100.00
2024-02-14T23:41:57.421Z,100.00
2024-02-14T23:44:26.580Z,100.00
2024-02-14T23:46:55.057Z,100.00
2024-02-14T23:49:24.279Z,100.00
2024-02-14T23:51:53.165Z,100.00
2024-02-14T23:54:23.024Z,100.00
2024-02-14T23:56:51.777Z,100.00
2024-02-14T23:59:20.246Z,100.00
